Ksl Stockholm — VROG3 — position and weather

sailwx.info

Track history (hours):
 
Tides and Currents Weather Stations Pressure Air Temp Water Temp Dewpoint Dewpoint Depression Visibility Wind Speed Wind Dir Waves Ship Positions

Ksl Stockholm

Last reported at 2018-Apr-03 06:00 UTC. Time now 2018-Apr-20 03:00 UTC.
Position N 28°05' W 013°31'.
Warning: this ship's position is 16 days out of date.

Length 292 m; draft 10 m.

Type: Cargo ship. MMSI: 477006100.

Date/timePositionNaut miles runAvg speedWind from/ knotsBaromVisibWave heightAir tempDewpointWater temp
2018-Apr-03 06:00N 28°05' W 013°31'2513.1
2018-Apr-03 04:07N 28°25' W 013°16'112.9
2018-Apr-03 04:00N 28°27' W 013°15'712.9
2018-Apr-03 03:29N 28°32' W 013°11'613.0
2018-Apr-03 02:59N 28°38' W 013°07'613.1
2018-Apr-03 02:30N 28°43' W 013°03'813.3
2018-Apr-03 01:56N 28°49' W 012°58'913.4
2018-Apr-03 01:15N 28°57' W 012°52'41010.7
2018-Apr-01 10:53N 34°31' W 008°14'4 9.2
2018-Apr-01 10:24N 34°35' W 008°10'15010.1
2018-Mar-31 19:33N 35°57' W 005°37'1 6.6
2018-Mar-31 19:27N 35°57' W 005°37'3 6.7
2018-Mar-31 19:00N 35°58' W 005°33'3 6.7
2018-Mar-31 18:30N 35°59' W 005°29'3 6.2
2018-Mar-31 18:00N 36°00' W 005°25'3 6.4
2018-Mar-31 17:30N 36°01' W 005°22'3 6.0
2018-Mar-31 17:00N 36°02' W 005°18'3 5.5
2018-Mar-31 16:30N 36°03' W 005°15'3 5.4
2018-Mar-31 16:00N 36°03' W 005°12'3 5.4
2018-Mar-31 15:30N 36°03' W 005°08'4 6.6
2018-Mar-31 14:57N 36°04' W 005°04'202 7.8
2018-Mar-30 12:52N 37°11' W 001°06'3 7.2
2018-Mar-30 12:30N 37°13' W 001°04'4 7.9
2018-Mar-30 12:00N 37°16' W 001°00'4 8.2
2018-Mar-30 11:30N 37°19' W 000°56'4 8.3
2018-Mar-30 11:00N 37°21' W 000°52'4 8.6
2018-Mar-30 10:30N 37°24' W 000°48'4 8.9
2018-Mar-30 10:00N 37°27' W 000°44'5 9.3
2018-Mar-30 09:30N 37°30' W 000°40'5 9.7
2018-Mar-30 09:00N 37°33' W 000°35'5 9.9
2018-Mar-30 08:30N 37°37' W 000°31'510.0
2018-Mar-30 08:00N 37°41' W 000°28'5 9.8
2018-Mar-30 07:30N 37°46' W 000°24'5 9.9
2018-Mar-30 07:00N 37°50' W 000°21'5 9.8
2018-Mar-30 06:27N 37°54' W 000°17'5 9.9
2018-Mar-30 06:00N 37°58' W 000°14'5 9.8
2018-Mar-30 05:30N 38°02' W 000°11'6512.0
2018-Mar-30 00:06N 38°55' E 000°37'113.0
2018-Mar-30 00:00N 38°56' E 000°38'712.8
2018-Mar-29 23:26N 39°02' E 000°44'512.1
2018-Mar-29 23:00N 39°06' E 000°47'612.5
2018-Mar-29 22:29N 39°11' E 000°52'28111.5
2018-Mar-28 22:03N 42°53' E 004°42'112.7
2018-Mar-28 21:59N 42°54' E 004°42'612.7
2018-Mar-28 21:30N 42°59' E 004°47'812.4
2018-Mar-28 20:50N 43°05' E 004°54'412.4
2018-Mar-28 20:31N 43°08' E 004°58'510.7
2018-Mar-28 20:00N 43°13' E 005°01'5 9.5
2018-Mar-28 19:31N 43°18' E 004°59'3 6.8
2018-Mar-28 19:00N 43°21' E 004°58'3 6.7
2018-Mar-28 18:31N 43°24' E 004°55'3 5.9
2018-Mar-28 18:00N 43°26' E 004°52'0 0.3
2018-Mar-28 17:30N 43°26' E 004°52'0 0.0
2018-Mar-28 17:00N 43°26' E 004°52'0 0.0
2018-Mar-28 16:30N 43°26' E 004°52'0 0.0
2018-Mar-28 16:00N 43°26' E 004°52'0 0.0
2018-Mar-28 15:30N 43°26' E 004°52'0 0.0
2018-Mar-28 14:57N 43°26' E 004°52'0 0.0
2018-Mar-28 14:30N 43°26' E 004°52'0 0.0
2018-Mar-28 14:00N 43°26' E 004°52'0 0.0
2018-Mar-28 12:24N 43°26' E 004°52'0 0.0
2018-Mar-28 11:42N 43°26' E 004°52'0 0.0
2018-Mar-28 10:30N 43°26' E 004°52'0 0.0
2018-Mar-28 10:00N 43°26' E 004°52'0 0.0
2018-Mar-28 08:30N 43°26' E 004°52'0 0.0
2018-Mar-28 07:00N 43°26' E 004°52'0 0.0
2018-Mar-28 05:30N 43°26' E 004°52'0 0.0
2018-Mar-28 04:06N 43°26' E 004°52'0 0.1
2018-Mar-28 04:00N 43°26' E 004°52'0 0.0
2018-Mar-28 03:30N 43°26' E 004°52'0 0.0
2018-Mar-28 03:00N 43°26' E 004°52'0 0.0
2018-Mar-28 02:27N 43°26' E 004°52'0 0.0
2018-Mar-28 02:00N 43°26' E 004°52'0 0.0
2018-Mar-28 01:18N 43°26' E 004°52'0 0.0
2018-Mar-28 00:54N 43°26' E 004°52'0 0.0
2018-Mar-28 00:24N 43°26' E 004°52'0 0.0
2018-Mar-27 23:54N 43°26' E 004°52'0 0.0
2018-Mar-27 23:24N 43°26' E 004°52'0 0.0
2018-Mar-27 22:06N 43°26' E 004°52'0 0.0
2018-Mar-27 22:00N 43°26' E 004°52'0 0.0
2018-Mar-27 21:24N 43°26' E 004°52'0 0.0
2018-Mar-27 21:00N 43°26' E 004°52'0 0.0
2018-Mar-27 20:24N 43°26' E 004°52'0 0.0
2018-Mar-27 19:54N 43°26' E 004°52'0 0.0
2018-Mar-27 18:33N 43°26' E 004°52'0 0.0
2018-Mar-27 16:42N 43°26' E 004°52'0 0.0
2018-Mar-27 16:18N 43°26' E 004°52'0 0.0
2018-Mar-27 15:18N 43°26' E 004°52'0 0.0
2018-Mar-27 11:36N 43°26' E 004°52'0 0.0
2018-Mar-27 11:24N 43°26' E 004°52'0 0.0
2018-Mar-27 11:00N 43°26' E 004°52'0 0.0
2018-Mar-27 10:30N 43°26' E 004°52'0 0.0
2018-Mar-27 07:54N 43°26' E 004°52'0 0.0
2018-Mar-27 07:18N 43°26' E 004°52'0 0.0
2018-Mar-27 06:51N 43°26' E 004°52'0 0.0
2018-Mar-27 06:30N 43°26' E 004°52'0 0.0
2018-Mar-27 05:24N 43°26' E 004°52'0 0.0
2018-Mar-27 04:51N 43°26' E 004°52'0 0.1
2018-Mar-27 04:30N 43°26' E 004°52'0 0.0
2018-Mar-27 04:00N 43°26' E 004°52'0 0.0
2018-Mar-27 03:30N 43°26' E 004°52'0 0.0
2018-Mar-27 03:00N 43°26' E 004°52'0 0.0
2018-Mar-27 02:30N 43°26' E 004°52'0 0.0
2018-Mar-27 02:00N 43°26' E 004°52'0 0.0
2018-Mar-27 01:27N 43°26' E 004°52'0 0.0
2018-Mar-26 23:54N 43°26' E 004°52'0 0.0
2018-Mar-26 23:30N 43°26' E 004°52'0 0.0
2018-Mar-26 23:00N 43°26' E 004°52'0 0.0
2018-Mar-26 22:24N 43°26' E 004°52'0 0.0
2018-Mar-26 21:54N 43°26' E 004°52'0 0.0
2018-Mar-26 21:30N 43°26' E 004°52'0 0.0
2018-Mar-26 20:54N 43°26' E 004°52'0 0.0
2018-Mar-26 18:06N 43°26' E 004°52'0 0.0
2018-Mar-26 17:54N 43°26' E 004°52'0 0.0
2018-Mar-26 15:12N 43°26' E 004°52'0 0.0
2018-Mar-26 15:00N 43°26' E 004°52'0 0.0
2018-Mar-26 09:54N 43°26' E 004°52'0 0.0
2018-Mar-26 08:09N 43°26' E 004°52'0 0.0
2018-Mar-26 07:45N 43°26' E 004°52'0 0.0
2018-Mar-26 07:24N 43°26' E 004°52'0 0.0
2018-Mar-26 06:48N 43°26' E 004°52'0 0.0
2018-Mar-26 06:24N 43°26' E 004°52'0 0.0
2018-Mar-26 03:00N 43°26' E 004°52'0 0.0
2018-Mar-26 02:24N 43°26' E 004°52'0 0.0
2018-Mar-26 01:48N 43°26' E 004°52'0 0.0
2018-Mar-26 01:24N 43°26' E 004°52'0 0.0
2018-Mar-25 23:30N 43°26' E 004°52'0 0.0
2018-Mar-25 22:09N 43°26' E 004°52'0 0.1
2018-Mar-25 22:00N 43°26' E 004°52'0 0.0
2018-Mar-25 21:12N 43°26' E 004°52'0 0.0
2018-Mar-25 20:57N 43°26' E 004°52'0 0.0
2018-Mar-25 20:30N 43°26' E 004°52'0 0.0
2018-Mar-25 20:00N 43°26' E 004°52'0 0.0
2018-Mar-25 19:30N 43°26' E 004°52'0 0.0
2018-Mar-25 17:18N 43°26' E 004°52'0 0.0
2018-Mar-25 07:36N 43°26' E 004°52'0 0.0
2018-Mar-25 07:12N 43°26' E 004°52'0 0.0
2018-Mar-25 05:30N 43°26' E 004°52'0 0.0
2018-Mar-25 03:21N 43°26' E 004°52'0 0.0
2018-Mar-25 02:54N 43°26' E 004°52'0 0.0
2018-Mar-25 02:12N 43°26' E 004°52'0 0.0
2018-Mar-25 02:00N 43°26' E 004°52'0 0.0
2018-Mar-25 01:30N 43°26' E 004°52'0 0.0
2018-Mar-25 00:54N 43°26' E 004°52'0 0.0
2018-Mar-25 00:24N 43°26' E 004°52'0 0.0
2018-Mar-24 09:42N 43°26' E 004°52'0 0.0
2018-Mar-24 09:12N 43°26' E 004°52'0 0.0
2018-Mar-24 08:54N 43°26' E 004°52'0 0.0
2018-Mar-24 07:15N 43°26' E 004°52'0 0.0
2018-Mar-24 06:36N 43°26' E 004°52'0 0.0
2018-Mar-24 06:27N 43°26' E 004°52'0 0.0
2018-Mar-24 06:00N 43°26' E 004°52'  
Track history (hours):
 
Tides and Currents Weather Stations Pressure Air Temp Water Temp Dewpoint Dewpoint Depression Visibility Wind Speed Wind Dir Waves Ship Positions

Ksl Stockholm

Last reported at 2018-Apr-03 06:00 UTC. Time now 2018-Apr-20 03:00 UTC.
Position N 28°05' W 013°31'.
Warning: this ship's position is 16 days out of date.

Length 292 m; draft 10 m.

Type: Cargo ship. MMSI: 477006100.

Date/timePositionNaut miles runAvg speedWind from/ knotsBaromVisibWave heightAir tempDewpointWater temp
2018-Apr-03 06:00N 28°05' W 013°31'2513.1
2018-Apr-03 04:07N 28°25' W 013°16'112.9
2018-Apr-03 04:00N 28°27' W 013°15'712.9
2018-Apr-03 03:29N 28°32' W 013°11'613.0
2018-Apr-03 02:59N 28°38' W 013°07'613.1
2018-Apr-03 02:30N 28°43' W 013°03'813.3
2018-Apr-03 01:56N 28°49' W 012°58'913.4
2018-Apr-03 01:15N 28°57' W 012°52'41010.7
2018-Apr-01 10:53N 34°31' W 008°14'4 9.2
2018-Apr-01 10:24N 34°35' W 008°10'15010.1
2018-Mar-31 19:33N 35°57' W 005°37'1 6.6
2018-Mar-31 19:27N 35°57' W 005°37'3 6.7
2018-Mar-31 19:00N 35°58' W 005°33'3 6.7
2018-Mar-31 18:30N 35°59' W 005°29'3 6.2
2018-Mar-31 18:00N 36°00' W 005°25'3 6.4
2018-Mar-31 17:30N 36°01' W 005°22'3 6.0
2018-Mar-31 17:00N 36°02' W 005°18'3 5.5
2018-Mar-31 16:30N 36°03' W 005°15'3 5.4
2018-Mar-31 16:00N 36°03' W 005°12'3 5.4
2018-Mar-31 15:30N 36°03' W 005°08'4 6.6
2018-Mar-31 14:57N 36°04' W 005°04'202 7.8
2018-Mar-30 12:52N 37°11' W 001°06'3 7.2
2018-Mar-30 12:30N 37°13' W 001°04'4 7.9
2018-Mar-30 12:00N 37°16' W 001°00'4 8.2
2018-Mar-30 11:30N 37°19' W 000°56'4 8.3
2018-Mar-30 11:00N 37°21' W 000°52'4 8.6
2018-Mar-30 10:30N 37°24' W 000°48'4 8.9
2018-Mar-30 10:00N 37°27' W 000°44'5 9.3
2018-Mar-30 09:30N 37°30' W 000°40'5 9.7
2018-Mar-30 09:00N 37°33' W 000°35'5 9.9
2018-Mar-30 08:30N 37°37' W 000°31'510.0
2018-Mar-30 08:00N 37°41' W 000°28'5 9.8
2018-Mar-30 07:30N 37°46' W 000°24'5 9.9
2018-Mar-30 07:00N 37°50' W 000°21'5 9.8
2018-Mar-30 06:27N 37°54' W 000°17'5 9.9
2018-Mar-30 06:00N 37°58' W 000°14'5 9.8
2018-Mar-30 05:30N 38°02' W 000°11'6512.0
2018-Mar-30 00:06N 38°55' E 000°37'113.0
2018-Mar-30 00:00N 38°56' E 000°38'712.8
2018-Mar-29 23:26N 39°02' E 000°44'512.1
2018-Mar-29 23:00N 39°06' E 000°47'612.5
2018-Mar-29 22:29N 39°11' E 000°52'28111.5
2018-Mar-28 22:03N 42°53' E 004°42'112.7
2018-Mar-28 21:59N 42°54' E 004°42'612.7
2018-Mar-28 21:30N 42°59' E 004°47'812.4
2018-Mar-28 20:50N 43°05' E 004°54'412.4
2018-Mar-28 20:31N 43°08' E 004°58'510.7
2018-Mar-28 20:00N 43°13' E 005°01'5 9.5
2018-Mar-28 19:31N 43°18' E 004°59'3 6.8
2018-Mar-28 19:00N 43°21' E 004°58'3 6.7
2018-Mar-28 18:31N 43°24' E 004°55'3 5.9
2018-Mar-28 18:00N 43°26' E 004°52'0 0.3
2018-Mar-28 17:30N 43°26' E 004°52'0 0.0
2018-Mar-28 17:00N 43°26' E 004°52'0 0.0
2018-Mar-28 16:30N 43°26' E 004°52'0 0.0
2018-Mar-28 16:00N 43°26' E 004°52'0 0.0
2018-Mar-28 15:30N 43°26' E 004°52'0 0.0
2018-Mar-28 14:57N 43°26' E 004°52'0 0.0
2018-Mar-28 14:30N 43°26' E 004°52'0 0.0
2018-Mar-28 14:00N 43°26' E 004°52'0 0.0
2018-Mar-28 12:24N 43°26' E 004°52'0 0.0
2018-Mar-28 11:42N 43°26' E 004°52'0 0.0
2018-Mar-28 10:30N 43°26' E 004°52'0 0.0
2018-Mar-28 10:00N 43°26' E 004°52'0 0.0
2018-Mar-28 08:30N 43°26' E 004°52'0 0.0
2018-Mar-28 07:00N 43°26' E 004°52'0 0.0
2018-Mar-28 05:30N 43°26' E 004°52'0 0.0
2018-Mar-28 04:06N 43°26' E 004°52'0 0.1
2018-Mar-28 04:00N 43°26' E 004°52'0 0.0
2018-Mar-28 03:30N 43°26' E 004°52'0 0.0
2018-Mar-28 03:00N 43°26' E 004°52'0 0.0
2018-Mar-28 02:27N 43°26' E 004°52'0 0.0
2018-Mar-28 02:00N 43°26' E 004°52'0 0.0
2018-Mar-28 01:18N 43°26' E 004°52'0 0.0
2018-Mar-28 00:54N 43°26' E 004°52'0 0.0
2018-Mar-28 00:24N 43°26' E 004°52'0 0.0
2018-Mar-27 23:54N 43°26' E 004°52'0 0.0
2018-Mar-27 23:24N 43°26' E 004°52'0 0.0
2018-Mar-27 22:06N 43°26' E 004°52'0 0.0
2018-Mar-27 22:00N 43°26' E 004°52'0 0.0
2018-Mar-27 21:24N 43°26' E 004°52'0 0.0
2018-Mar-27 21:00N 43°26' E 004°52'0 0.0
2018-Mar-27 20:24N 43°26' E 004°52'0 0.0
2018-Mar-27 19:54N 43°26' E 004°52'0 0.0
2018-Mar-27 18:33N 43°26' E 004°52'0 0.0
2018-Mar-27 16:42N 43°26' E 004°52'0 0.0
2018-Mar-27 16:18N 43°26' E 004°52'0 0.0
2018-Mar-27 15:18N 43°26' E 004°52'0 0.0
2018-Mar-27 11:36N 43°26' E 004°52'0 0.0
2018-Mar-27 11:24N 43°26' E 004°52'0 0.0
2018-Mar-27 11:00N 43°26' E 004°52'0 0.0
2018-Mar-27 10:30N 43°26' E 004°52'0 0.0
2018-Mar-27 07:54N 43°26' E 004°52'0 0.0
2018-Mar-27 07:18N 43°26' E 004°52'0 0.0
2018-Mar-27 06:51N 43°26' E 004°52'0 0.0
2018-Mar-27 06:30N 43°26' E 004°52'0 0.0
2018-Mar-27 05:24N 43°26' E 004°52'0 0.0
2018-Mar-27 04:51N 43°26' E 004°52'0 0.1
2018-Mar-27 04:30N 43°26' E 004°52'0 0.0
2018-Mar-27 04:00N 43°26' E 004°52'0 0.0
2018-Mar-27 03:30N 43°26' E 004°52'0 0.0
2018-Mar-27 03:00N 43°26' E 004°52'0 0.0
2018-Mar-27 02:30N 43°26' E 004°52'0 0.0
2018-Mar-27 02:00N 43°26' E 004°52'0 0.0
2018-Mar-27 01:27N 43°26' E 004°52'0 0.0
2018-Mar-26 23:54N 43°26' E 004°52'0 0.0
2018-Mar-26 23:30N 43°26' E 004°52'0 0.0
2018-Mar-26 23:00N 43°26' E 004°52'0 0.0
2018-Mar-26 22:24N 43°26' E 004°52'0 0.0
2018-Mar-26 21:54N 43°26' E 004°52'0 0.0
2018-Mar-26 21:30N 43°26' E 004°52'0 0.0
2018-Mar-26 20:54N 43°26' E 004°52'0 0.0
2018-Mar-26 18:06N 43°26' E 004°52'0 0.0
2018-Mar-26 17:54N 43°26' E 004°52'0 0.0
2018-Mar-26 15:12N 43°26' E 004°52'0 0.0
2018-Mar-26 15:00N 43°26' E 004°52'0 0.0
2018-Mar-26 09:54N 43°26' E 004°52'0 0.0
2018-Mar-26 08:09N 43°26' E 004°52'0 0.0
2018-Mar-26 07:45N 43°26' E 004°52'0 0.0
2018-Mar-26 07:24N 43°26' E 004°52'0 0.0
2018-Mar-26 06:48N 43°26' E 004°52'0 0.0
2018-Mar-26 06:24N 43°26' E 004°52'0 0.0
2018-Mar-26 03:00N 43°26' E 004°52'0 0.0
2018-Mar-26 02:24N 43°26' E 004°52'0 0.0
2018-Mar-26 01:48N 43°26' E 004°52'0 0.0
2018-Mar-26 01:24N 43°26' E 004°52'0 0.0
2018-Mar-25 23:30N 43°26' E 004°52'0 0.0
2018-Mar-25 22:09N 43°26' E 004°52'0 0.1
2018-Mar-25 22:00N 43°26' E 004°52'0 0.0
2018-Mar-25 21:12N 43°26' E 004°52'0 0.0
2018-Mar-25 20:57N 43°26' E 004°52'0 0.0
2018-Mar-25 20:30N 43°26' E 004°52'0 0.0
2018-Mar-25 20:00N 43°26' E 004°52'0 0.0
2018-Mar-25 19:30N 43°26' E 004°52'0 0.0
2018-Mar-25 17:18N 43°26' E 004°52'0 0.0
2018-Mar-25 07:36N 43°26' E 004°52'0 0.0
2018-Mar-25 07:12N 43°26' E 004°52'0 0.0
2018-Mar-25 05:30N 43°26' E 004°52'0 0.0
2018-Mar-25 03:21N 43°26' E 004°52'0 0.0
2018-Mar-25 02:54N 43°26' E 004°52'0 0.0
2018-Mar-25 02:12N 43°26' E 004°52'0 0.0
2018-Mar-25 02:00N 43°26' E 004°52'0 0.0
2018-Mar-25 01:30N 43°26' E 004°52'0 0.0
2018-Mar-25 00:54N 43°26' E 004°52'0 0.0
2018-Mar-25 00:24N 43°26' E 004°52'0 0.0
2018-Mar-24 09:42N 43°26' E 004°52'0 0.0
2018-Mar-24 09:12N 43°26' E 004°52'0 0.0
2018-Mar-24 08:54N 43°26' E 004°52'0 0.0
2018-Mar-24 07:15N 43°26' E 004°52'0 0.0
2018-Mar-24 06:36N 43°26' E 004°52'0 0.0
2018-Mar-24 06:27N 43°26' E 004°52'0 0.0
2018-Mar-24 06:00N 43°26' E 004°52'  

Dump ship's entire track history